Time;durP1;ratioP1;P1;durP2;ratioP2;P2;SDS_P1;SDS_P2;PMS_P1;PMS_P2;Temp;Humidity;BMP_temperature;BMP_pressure;BME280_temperature;BME280_humidity;BME280_pressure;Samples;Min_cycle;Max_cycle;Signal;HPM_P1;HPM_P2
2023/04/11 00:01:58;;;;;;;5.73;2.73;;;13.00;10.80;;;;;;5095031;28;20471;-65
2023/04/11 00:04:24;;;;;;;5.87;2.33;;;13.00;10.60;;;;;;5104287;27;20973;-64
2023/04/11 00:06:53;;;;;;;7.50;2.10;;;13.00;10.60;;;;;;5094760;28;21169;-65
2023/04/11 00:09:19;;;;;;;5.13;2.20;;;13.00;10.60;;;;;;5096500;27;20483;-64
2023/04/11 00:11:46;;;;;;;5.27;2.50;;;12.90;10.70;;;;;;5109715;27;20467;-62
2023/04/11 00:14:14;;;;;;;7.87;2.40;;;12.90;10.20;;;;;;5117041;27;20516;-65
2023/04/11 00:16:41;;;;;;;5.10;2.57;;;13.00;10.30;;;;;;5114350;27;21100;-65
2023/04/11 00:19:08;;;;;;;5.50;2.50;;;13.00;10.30;;;;;;5118927;27;20515;-64
2023/04/11 00:21:38;;;;;;;5.63;2.30;;;13.00;10.30;;;;;;5119844;27;20556;-64
2023/04/11 00:24:07;;;;;;;4.80;1.83;;;13.00;10.30;;;;;;5122951;27;20490;-64
2023/04/11 00:26:34;;;;;;;7.10;2.43;;;13.00;10.30;;;;;;5119050;27;20507;-64
2023/04/11 00:29:01;;;;;;;5.10;2.40;;;13.00;10.20;;;;;;5117161;27;20482;-65
2023/04/11 00:31:27;;;;;;;6.17;2.23;;;13.10;10.20;;;;;;5116354;27;20470;-64
2023/04/11 00:33:54;;;;;;;5.50;2.10;;;13.10;10.20;;;;;;5123860;27;20473;-64
2023/04/11 00:36:21;;;;;;;6.17;2.50;;;13.10;10.30;;;;;;5114492;27;20465;-63
2023/04/11 00:38:48;;;;;;;5.07;2.33;;;13.10;10.50;;;;;;5116906;27;20455;-63
2023/04/11 00:41:16;;;;;;;5.27;2.57;;;13.10;10.60;;;;;;5112995;27;20461;-63
2023/04/11 00:43:42;;;;;;;6.47;2.50;;;13.10;10.60;;;;;;5106592;27;20475;-63
2023/04/11 00:46:10;;;;;;;5.10;2.50;;;13.10;10.70;;;;;;5112659;27;20990;-62
2023/04/11 00:48:36;;;;;;;4.97;2.40;;;13.10;10.60;;;;;;5116381;28;20462;-63
2023/04/11 00:51:03;;;;;;;4.87;2.20;;;13.10;10.70;;;;;;5105545;22;20488;-66
2023/04/11 00:53:31;;;;;;;5.10;2.40;;;13.20;10.80;;;;;;5052170;28;20470;-67
2023/04/11 00:55:59;;;;;;;5.47;3.00;;;13.20;10.80;;;;;;5063266;28;20564;-66
2023/04/11 00:58:27;;;;;;;5.60;2.60;;;13.20;10.90;;;;;;5068492;28;20891;-66
2023/04/11 01:00:54;;;;;;;5.30;2.70;;;13.20;11.00;;;;;;5056883;28;20485;-67
2023/04/11 01:03:21;;;;;;;6.23;2.77;;;13.30;11.30;;;;;;5068756;28;20468;-66
2023/04/11 01:05:51;;;;;;;6.07;2.77;;;13.30;11.40;;;;;;5066642;28;20957;-66
2023/04/11 01:08:19;;;;;;;6.10;2.63;;;13.30;11.40;;;;;;5065798;28;20477;-67
2023/04/11 01:10:46;;;;;;;6.63;2.97;;;13.30;11.60;;;;;;5064867;28;20800;-67
2023/04/11 01:13:12;;;;;;;5.67;3.03;;;13.30;12.00;;;;;;5060341;28;20557;-66
2023/04/11 01:15:40;;;;;;;7.13;3.53;;;13.30;12.10;;;;;;5067507;28;20476;-67
2023/04/11 01:18:08;;;;;;;5.57;3.03;;;13.30;12.90;;;;;;5063697;28;20476;-67
2023/04/11 01:20:37;;;;;;;6.20;3.07;;;13.30;12.50;;;;;;5066971;28;20489;-67
2023/04/11 01:23:05;;;;;;;6.03;3.30;;;13.30;12.60;;;;;;5062473;28;20794;-66
2023/04/11 01:25:33;;;;;;;5.60;3.00;;;13.30;12.60;;;;;;5062219;28;20476;-65
2023/04/11 01:28:00;;;;;;;8.07;3.60;;;13.30;12.90;;;;;;5064127;28;20484;-65
2023/04/11 01:30:27;;;;;;;6.67;3.03;;;13.30;13.20;;;;;;5062834;28;20484;-65
2023/04/11 01:32:53;;;;;;;5.47;2.60;;;13.30;13.30;;;;;;5068128;28;20849;-67
2023/04/11 01:35:20;;;;;;;5.00;2.60;;;13.20;13.40;;;;;;5064207;28;20962;-66
2023/04/11 01:37:47;;;;;;;5.70;2.73;;;13.10;13.40;;;;;;5063627;28;20479;-66
2023/04/11 01:40:17;;;;;;;6.00;3.00;;;13.10;13.40;;;;;;5062410;28;20477;-66
2023/04/11 01:42:46;;;;;;;5.73;2.90;;;13.10;13.50;;;;;;5061977;28;20500;-66
2023/04/11 01:45:13;;;;;;;7.73;3.93;;;13.10;13.50;;;;;;5067423;28;20942;-66
2023/04/11 01:47:40;;;;;;;7.40;2.97;;;13.10;13.60;;;;;;5066981;28;20461;-66
2023/04/11 01:50:08;;;;;;;6.13;3.10;;;13.00;13.50;;;;;;5068008;28;20495;-66
2023/04/11 01:52:35;;;;;;;6.47;2.90;;;13.10;13.70;;;;;;5059997;28;21208;-66
2023/04/11 01:55:02;;;;;;;5.33;2.70;;;13.00;13.90;;;;;;5069033;28;20464;-67
2023/04/11 01:57:28;;;;;;;7.17;3.23;;;13.10;13.80;;;;;;5064132;28;20453;-67
2023/04/11 01:59:56;;;;;;;5.30;2.70;;;13.10;13.80;;;;;;5066137;28;21118;-67
2023/04/11 02:02:24;;;;;;;6.17;2.90;;;13.10;14.00;;;;;;5061628;28;20484;-67
2023/04/11 02:04:51;;;;;;;5.50;2.63;;;13.00;13.90;;;;;;5065387;28;20465;-67
2023/04/11 02:07:19;;;;;;;5.53;2.90;;;13.10;14.10;;;;;;5067905;28;20468;-68
2023/04/11 02:09:46;;;;;;;6.33;3.20;;;13.10;14.20;;;;;;5068539;28;20553;-67
2023/04/11 02:12:13;;;;;;;7.47;3.23;;;13.10;14.30;;;;;;5062454;28;20466;-67
2023/04/11 02:14:42;;;;;;;5.90;2.80;;;13.10;14.30;;;;;;5054656;28;20465;-67
2023/04/11 02:17:10;;;;;;;7.77;3.17;;;13.10;14.20;;;;;;5065080;28;20485;-66
2023/04/11 02:19:37;;;;;;;6.10;3.37;;;13.10;14.30;;;;;;5062533;28;20488;-67
2023/04/11 02:22:04;;;;;;;5.80;3.13;;;13.00;14.40;;;;;;5060377;28;20832;-66
2023/04/11 02:24:30;;;;;;;5.67;3.27;;;13.00;14.70;;;;;;5059881;28;20551;-67
2023/04/11 02:26:57;;;;;;;6.53;3.43;;;13.10;15.30;;;;;;5064505;28;20464;-67
2023/04/11 02:29:24;;;;;;;6.50;3.20;;;13.00;15.50;;;;;;5058876;28;20576;-67
2023/04/11 02:31:50;;;;;;;8.03;4.17;;;13.00;15.60;;;;;;5063712;28;20477;-67
2023/04/11 02:34:19;;;;;;;6.10;3.20;;;13.00;16.00;;;;;;5061115;28;20926;-67
2023/04/11 02:36:46;;;;;;;5.23;3.13;;;13.00;16.10;;;;;;5067009;28;20469;-67
2023/04/11 02:39:13;;;;;;;5.40;2.77;;;13.00;16.00;;;;;;5063621;28;20492;-67
2023/04/11 02:41:40;;;;;;;8.77;3.47;;;13.00;16.00;;;;;;5061003;28;21027;-67
2023/04/11 02:44:07;;;;;;;6.17;3.30;;;12.90;16.10;;;;;;5057986;28;20671;-67
2023/04/11 02:46:34;;;;;;;6.87;2.80;;;12.90;16.00;;;;;;5061477;28;20465;-67
2023/04/11 02:49:00;;;;;;;6.90;3.40;;;12.80;15.90;;;;;;5061725;28;20484;-67
2023/04/11 02:51:28;;;;;;;7.17;3.17;;;12.80;16.00;;;;;;5063372;28;20973;-67
2023/04/11 02:53:55;;;;;;;6.07;3.07;;;12.80;15.90;;;;;;5060514;28;20465;-67
2023/04/11 02:56:22;;;;;;;6.10;2.87;;;12.80;15.90;;;;;;5066509;28;20476;-67
2023/04/11 02:58:51;;;;;;;5.70;2.83;;;12.80;15.80;;;;;;5057844;28;20458;-67
2023/04/11 03:01:20;;;;;;;6.20;2.77;;;12.70;15.60;;;;;;5066854;28;20480;-67
2023/04/11 03:03:47;;;;;;;6.03;2.77;;;12.70;15.30;;;;;;5061671;28;20976;-67
2023/04/11 03:06:15;;;;;;;6.37;2.90;;;12.70;15.10;;;;;;5059094;28;20472;-67
2023/04/11 03:08:43;;;;;;;5.23;2.30;;;12.70;14.90;;;;;;5061528;28;20477;-68
2023/04/11 03:11:09;;;;;;;4.97;2.33;;;12.70;15.00;;;;;;5066559;28;20842;-67
2023/04/11 03:13:38;;;;;;;4.70;2.40;;;12.70;15.00;;;;;;5063122;28;20461;-67
2023/04/11 03:16:05;;;;;;;5.73;2.70;;;12.70;14.90;;;;;;5063045;28;20461;-68
2023/04/11 03:18:32;;;;;;;6.00;2.60;;;12.70;14.90;;;;;;5067407;28;20484;-67
2023/04/11 03:20:59;;;;;;;5.40;2.70;;;12.70;14.90;;;;;;5071983;28;20492;-67
2023/04/11 03:23:26;;;;;;;6.73;2.60;;;12.80;14.90;;;;;;5065610;28;20526;-67
2023/04/11 03:25:54;;;;;;;5.53;2.60;;;12.80;14.90;;;;;;5052740;28;20476;-68
2023/04/11 03:28:22;;;;;;;5.20;2.60;;;12.80;14.70;;;;;;5062015;28;20879;-67
2023/04/11 03:30:49;;;;;;;5.83;2.67;;;12.80;14.70;;;;;;5060945;28;20485;-67
2023/04/11 03:33:16;;;;;;;5.53;1.83;;;12.80;14.80;;;;;;5058060;28;20936;-67
2023/04/11 03:35:42;;;;;;;5.27;2.17;;;12.80;14.70;;;;;;5056942;28;20569;-66
2023/04/11 03:38:09;;;;;;;4.77;2.10;;;12.80;14.90;;;;;;5062437;28;20465;-67
2023/04/11 03:40:36;;;;;;;6.23;2.10;;;12.80;15.00;;;;;;5060070;28;20484;-67
2023/04/11 03:43:04;;;;;;;9.67;2.33;;;12.80;15.10;;;;;;5058793;28;20496;-67
2023/04/11 03:45:31;;;;;;;4.70;2.30;;;12.80;15.20;;;;;;5064628;28;20465;-67
2023/04/11 03:47:58;;;;;;;5.30;2.30;;;12.80;15.20;;;;;;5062578;28;20457;-67
2023/04/11 03:50:24;;;;;;;5.20;2.30;;;12.80;15.40;;;;;;5062966;28;20493;-67
2023/04/11 03:52:51;;;;;;;7.00;2.20;;;12.80;15.40;;;;;;5069919;28;20468;-67
2023/04/11 03:55:19;;;;;;;5.30;2.10;;;12.80;15.50;;;;;;5068503;28;20468;-67
2023/04/11 03:57:46;;;;;;;6.50;2.03;;;12.80;15.80;;;;;;5066535;28;20580;-67
2023/04/11 04:00:14;;;;;;;5.53;2.10;;;12.90;15.90;;;;;;5061414;28;20477;-67
2023/04/11 04:02:41;;;;;;;5.17;2.00;;;12.90;16.00;;;;;;5065697;28;20457;-67
2023/04/11 04:05:08;;;;;;;6.53;1.93;;;13.00;16.30;;;;;;5061148;28;20870;-67
2023/04/11 04:07:35;;;;;;;5.60;2.03;;;13.00;16.30;;;;;;5061901;28;20469;-67
2023/04/11 04:10:02;;;;;;;7.03;3.27;;;13.00;17.10;;;;;;5066536;28;20513;-67
2023/04/11 04:12:28;;;;;;;6.37;3.73;;;13.00;18.50;;;;;;5060866;28;20464;-66
2023/04/11 04:14:55;;;;;;;6.10;3.50;;;13.00;19.70;;;;;;5064744;28;20465;-67
2023/04/11 04:17:23;;;;;;;7.20;3.30;;;12.90;20.60;;;;;;5063346;28;20592;-65
2023/04/11 04:19:50;;;;;;;5.80;3.30;;;12.90;20.70;;;;;;5063324;28;20481;-65
2023/04/11 04:22:17;;;;;;;5.50;2.60;;;12.80;20.10;;;;;;5065607;28;20536;-65
2023/04/11 04:24:46;;;;;;;6.73;2.93;;;12.80;20.10;;;;;;5066022;28;20461;-66
2023/04/11 04:27:13;;;;;;;6.40;3.03;;;12.70;20.30;;;;;;5059774;28;20462;-66
2023/04/11 04:29:44;;;;;;;6.93;3.10;;;12.60;20.60;;;;;;5062944;28;20516;-65
2023/04/11 04:32:11;;;;;;;5.63;2.63;;;12.60;20.80;;;;;;5063441;28;20493;-66
2023/04/11 04:34:45;;;;;;;6.10;3.07;;;12.60;21.00;;;;;;5062868;28;20987;-66
2023/04/11 04:37:20;;;;;;;6.97;3.77;;;12.50;21.60;;;;;;5062795;28;20465;-67
2023/04/11 04:39:49;;;;;;;5.40;2.73;;;12.40;21.90;;;;;;5060495;28;20472;-66
2023/04/11 04:42:16;;;;;;;6.20;3.23;;;12.40;22.60;;;;;;5057768;28;20507;-66
2023/04/11 04:44:44;;;;;;;7.73;3.33;;;12.40;23.60;;;;;;5058392;28;20597;-66
2023/04/11 04:47:10;;;;;;;6.60;3.57;;;12.30;23.60;;;;;;5059243;28;20469;-65
2023/04/11 04:49:37;;;;;;;6.47;3.27;;;12.30;24.40;;;;;;5058033;28;20492;-65
2023/04/11 04:52:05;;;;;;;7.87;3.00;;;12.30;25.00;;;;;;5057046;28;20493;-67
2023/04/11 04:54:32;;;;;;;6.93;2.77;;;12.30;25.90;;;;;;5059271;28;20484;-67
2023/04/11 04:57:00;;;;;;;6.70;1.90;;;12.30;26.60;;;;;;5055893;28;20468;-67
2023/04/11 04:59:26;;;;;;;6.10;2.37;;;12.30;29.00;;;;;;5060890;28;20482;-67
2023/04/11 05:01:53;;;;;;;5.33;2.50;;;12.30;29.60;;;;;;5058317;28;20927;-67
2023/04/11 05:04:21;;;;;;;7.63;3.07;;;12.30;29.70;;;;;;5059057;28;20553;-66
2023/04/11 05:06:48;;;;;;;6.67;3.07;;;12.20;29.60;;;;;;5051196;28;20966;-66
2023/04/11 05:09:17;;;;;;;8.23;2.70;;;12.10;29.30;;;;;;5061197;28;21017;-67
2023/04/11 05:11:44;;;;;;;7.20;2.17;;;12.10;30.00;;;;;;5058792;28;20453;-66
2023/04/11 05:14:10;;;;;;;5.23;1.90;;;12.00;30.20;;;;;;5056332;28;20473;-66
2023/04/11 05:16:40;;;;;;;8.67;2.83;;;12.00;31.20;;;;;;5060254;28;20465;-67
2023/04/11 05:19:07;;;;;;;7.67;1.97;;;12.00;31.50;;;;;;5059156;28;20461;-69
2023/04/11 05:21:33;;;;;;;7.23;2.17;;;11.90;31.70;;;;;;5057841;28;20473;-67
2023/04/11 05:24:00;;;;;;;4.30;1.43;;;11.90;32.00;;;;;;5054739;28;20465;-68
2023/04/11 05:26:28;;;;;;;5.67;1.73;;;11.90;32.20;;;;;;5060036;28;20461;-68
2023/04/11 05:28:55;;;;;;;5.00;2.03;;;11.80;32.10;;;;;;5062741;28;20468;-67
2023/04/11 05:31:24;;;;;;;5.37;1.63;;;11.80;32.30;;;;;;5059276;28;20492;-67
2023/04/11 05:33:51;;;;;;;4.87;1.70;;;11.80;32.50;;;;;;5057627;28;20585;-67
2023/04/11 05:36:18;;;;;;;4.97;1.50;;;11.80;32.10;;;;;;5061388;28;20825;-68
2023/04/11 05:38:45;;;;;;;5.83;1.63;;;11.90;31.70;;;;;;5058125;28;20461;-68
2023/04/11 05:41:12;;;;;;;3.83;0.90;;;11.90;31.60;;;;;;5061758;28;20860;-68
2023/04/11 05:43:40;;;;;;;5.00;0.87;;;11.90;31.50;;;;;;5057914;28;20461;-66
2023/04/11 05:46:08;;;;;;;4.10;0.90;;;11.90;30.90;;;;;;5054712;28;20980;-67
2023/04/11 05:48:34;;;;;;;4.40;1.30;;;11.90;30.30;;;;;;5056732;28;20468;-67
2023/04/11 05:51:01;;;;;;;5.57;1.83;;;12.00;29.90;;;;;;5062170;28;20488;-68
2023/04/11 05:53:28;;;;;;;4.40;1.00;;;12.10;29.60;;;;;;5054782;28;20468;-67
2023/04/11 05:55:55;;;;;;;3.87;0.80;;;12.10;29.40;;;;;;5062266;28;20511;-67
2023/04/11 05:58:22;;;;;;;4.10;1.00;;;12.10;29.70;;;;;;5065574;28;20469;-67
2023/04/11 06:00:50;;;;;;;4.10;0.60;;;12.10;31.10;;;;;;5063879;28;20481;-67
2023/04/11 06:03:17;;;;;;;4.10;0.90;;;12.00;30.70;;;;;;5066814;28;20492;-69
2023/04/11 06:05:43;;;;;;;3.33;0.50;;;11.90;30.20;;;;;;5059521;28;20473;-67
2023/04/11 06:08:10;;;;;;;4.63;0.40;;;11.80;30.00;;;;;;5056424;28;20552;-66
2023/04/11 06:10:37;;;;;;;3.40;0.50;;;11.80;30.10;;;;;;5062778;28;20535;-66
2023/04/11 06:13:04;;;;;;;4.20;0.80;;;11.70;30.00;;;;;;5060537;28;20821;-67
2023/04/11 06:15:31;;;;;;;3.53;0.50;;;11.70;29.90;;;;;;5061540;28;20488;-67
2023/04/11 06:17:59;;;;;;;7.33;0.50;;;11.70;29.90;;;;;;5053489;28;20465;-66
2023/04/11 06:20:26;;;;;;;3.93;0.50;;;11.70;28.80;;;;;;5037981;28;20565;-67
2023/04/11 06:22:52;;;;;;;3.30;0.40;;;11.60;28.60;;;;;;5056695;28;20461;-66
2023/04/11 06:25:19;;;;;;;3.70;0.50;;;11.60;28.60;;;;;;5058893;28;20472;-66
2023/04/11 06:27:47;;;;;;;3.30;0.50;;;11.60;28.60;;;;;;5065255;28;20476;-67
2023/04/11 06:30:14;;;;;;;3.17;0.30;;;11.50;28.50;;;;;;5067007;28;20485;-67
2023/04/11 06:32:42;;;;;;;3.47;0.40;;;11.50;27.90;;;;;;5067105;28;20461;-67
2023/04/11 06:35:11;;;;;;;3.40;0.40;;;11.50;28.10;;;;;;5073651;28;20457;-66
2023/04/11 06:37:37;;;;;;;3.70;0.60;;;11.50;27.90;;;;;;5072043;28;20461;-67
2023/04/11 06:40:05;;;;;;;3.30;0.50;;;11.50;27.60;;;;;;5063474;28;20484;-67
2023/04/11 06:42:31;;;;;;;5.30;0.73;;;11.50;27.30;;;;;;5060855;28;20489;-67
2023/04/11 06:44:58;;;;;;;3.80;0.43;;;11.40;27.50;;;;;;5059813;28;20901;-66
2023/04/11 06:47:25;;;;;;;3.40;0.50;;;11.40;26.90;;;;;;5052660;28;21013;-66
2023/04/11 06:49:52;;;;;;;3.20;0.40;;;11.40;27.10;;;;;;5060970;28;20489;-66
2023/04/11 06:52:20;;;;;;;3.87;0.50;;;11.40;27.50;;;;;;5056430;28;20805;-66
2023/04/11 06:54:47;;;;;;;3.80;0.50;;;11.40;26.90;;;;;;5052942;28;20465;-66
2023/04/11 06:57:14;;;;;;;3.20;0.40;;;11.40;27.30;;;;;;5064721;28;20946;-66
2023/04/11 06:59:41;;;;;;;3.50;0.40;;;11.40;26.50;;;;;;5060865;28;20815;-66
2023/04/11 07:02:08;;;;;;;3.80;0.50;;;11.40;25.90;;;;;;5054402;28;20477;-67
2023/04/11 07:04:34;;;;;;;3.50;0.40;;;11.40;25.40;;;;;;5060009;28;20461;-66
2023/04/11 07:07:01;;;;;;;5.10;0.80;;;11.40;25.60;;;;;;5063020;28;20473;-66
2023/04/11 07:09:29;;;;;;;3.90;0.50;;;11.40;24.50;;;;;;5061743;28;20988;-66
2023/04/11 07:11:56;;;;;;;3.80;0.70;;;11.40;24.00;;;;;;5045384;28;20465;-66
2023/04/11 07:14:23;;;;;;;4.87;0.80;;;11.40;24.30;;;;;;5064666;28;20560;-66
2023/04/11 07:16:49;;;;;;;3.60;0.60;;;11.40;23.70;;;;;;5056568;28;20462;-66
2023/04/11 07:19:16;;;;;;;3.73;0.73;;;11.50;23.30;;;;;;5049914;28;20996;-66
2023/04/11 07:21:43;;;;;;;5.07;0.70;;;11.50;22.50;;;;;;5059055;28;21022;-66
2023/04/11 07:24:12;;;;;;;3.30;0.43;;;11.50;21.30;;;;;;5059004;28;20464;-65
2023/04/11 07:29:09;;;;;;;3.80;0.53;;;11.50;20.30;;;;;;5093646;28;21031;-63
2023/04/11 07:31:37;;;;;;;4.77;1.93;;;11.50;20.10;;;;;;5098913;27;20482;-63
2023/04/11 07:34:03;;;;;;;7.30;0.80;;;11.50;20.00;;;;;;5119465;27;20828;-64
2023/04/11 07:36:30;;;;;;;4.47;0.70;;;11.50;19.80;;;;;;5126189;27;20474;-63
2023/04/11 07:38:58;;;;;;;4.17;0.60;;;11.50;19.50;;;;;;5115942;27;20488;-62
2023/04/11 07:41:25;;;;;;;3.30;0.40;;;11.50;20.30;;;;;;5114828;27;20446;-63
2023/04/11 07:43:52;;;;;;;6.10;0.80;;;11.50;19.80;;;;;;5108208;27;20458;-63
2023/04/11 07:46:20;;;;;;;5.37;0.50;;;11.60;18.90;;;;;;5110025;27;20470;-65
2023/04/11 07:48:46;;;;;;;3.53;0.63;;;11.70;19.10;;;;;;5124704;27;20470;-64
2023/04/11 07:51:13;;;;;;;3.90;0.50;;;11.70;18.60;;;;;;5121512;27;20494;-66
2023/04/11 07:53:40;;;;;;;4.00;0.80;;;11.60;18.40;;;;;;5121420;27;20485;-65
2023/04/11 07:56:08;;;;;;;3.80;0.70;;;11.60;18.90;;;;;;5127048;27;20491;-63
2023/04/11 07:58:34;;;;;;;3.73;0.80;;;11.50;18.90;;;;;;5117706;27;20451;-63
2023/04/11 08:01:01;;;;;;;6.80;0.93;;;11.40;18.30;;;;;;5119378;27;20475;-65
2023/04/11 08:03:29;;;;;;;4.10;0.80;;;11.40;17.80;;;;;;5123742;27;20466;-65
2023/04/11 08:05:56;;;;;;;4.10;0.60;;;11.40;17.40;;;;;;5127699;27;20497;-65
2023/04/11 08:08:23;;;;;;;4.50;1.13;;;11.40;16.80;;;;;;5127221;27;20462;-64
2023/04/11 08:10:49;;;;;;;5.17;2.03;;;11.40;16.70;;;;;;5110356;27;20474;-66
2023/04/11 08:13:16;;;;;;;3.87;0.87;;;11.50;16.40;;;;;;5120510;27;20830;-66
2023/04/11 08:15:43;;;;;;;4.57;0.90;;;11.50;16.30;;;;;;5110125;27;20489;-65
2023/04/11 08:18:10;;;;;;;4.57;0.80;;;11.60;16.60;;;;;;5118042;27;20465;-65
2023/04/11 08:20:39;;;;;;;3.90;0.80;;;11.70;16.60;;;;;;5113304;27;20568;-65
2023/04/11 08:23:07;;;;;;;4.53;0.80;;;11.80;16.50;;;;;;5105017;27;20571;-65
2023/04/11 08:25:35;;;;;;;5.30;1.13;;;11.90;16.40;;;;;;5116677;27;20984;-64
2023/04/11 08:28:03;;;;;;;3.90;0.90;;;12.00;16.00;;;;;;5116305;27;20466;-65
2023/04/11 08:30:31;;;;;;;4.53;0.80;;;12.10;16.20;;;;;;5115588;27;20495;-65
2023/04/11 08:32:57;;;;;;;5.03;1.00;;;12.20;15.70;;;;;;5114668;27;20469;-66
2023/04/11 08:35:24;;;;;;;7.50;1.20;;;12.30;15.10;;;;;;5125189;27;20469;-64
2023/04/11 08:37:52;;;;;;;7.00;0.93;;;12.40;15.20;;;;;;5110515;27;20463;-64
2023/04/11 08:40:19;;;;;;;6.77;1.10;;;12.60;15.50;;;;;;5128297;27;20474;-66
2023/04/11 08:42:46;;;;;;;6.10;1.30;;;13.10;14.70;;;;;;5117798;27;20904;-66
2023/04/11 08:45:13;;;;;;;5.47;1.00;;;14.00;13.40;;;;;;5126251;27;20470;-67
2023/04/11 08:47:40;;;;;;;5.10;0.90;;;14.90;11.50;;;;;;5125143;27;20950;-67
2023/04/11 08:50:08;;;;;;;4.67;0.90;;;15.70;10.10;;;;;;5120789;27;20489;-66
2023/04/11 08:52:36;;;;;;;5.47;0.93;;;16.20;8.70;;;;;;5123428;28;20467;-68
2023/04/11 08:55:04;;;;;;;5.30;1.20;;;16.20;7.80;;;;;;5128765;28;20450;-64
2023/04/11 08:57:31;;;;;;;4.47;0.70;;;15.90;8.30;;;;;;5123799;27;20471;-65
2023/04/11 09:00:01;;;;;;;5.60;1.00;;;15.50;8.80;;;;;;5123363;27;20482;-65
2023/04/11 09:02:28;;;;;;;5.30;1.07;;;15.10;9.90;;;;;;5120760;27;20552;-65
2023/04/11 09:04:56;;;;;;;6.00;1.17;;;14.80;10.60;;;;;;5122354;27;20466;-65
2023/04/11 09:07:23;;;;;;;8.07;1.30;;;14.50;10.80;;;;;;5126222;27;20458;-65
2023/04/11 09:09:49;;;;;;;7.50;1.23;;;14.30;11.50;;;;;;5119511;27;20517;-65
2023/04/11 09:12:21;;;;;;;9.23;1.10;;;14.10;11.80;;;;;;5119167;27;20459;-65
2023/04/11 09:14:48;;;;;;;4.43;0.60;;;13.90;12.40;;;;;;5096672;27;20469;-66
2023/04/11 09:17:15;;;;;;;7.37;1.30;;;13.80;12.50;;;;;;5126311;27;20473;-66
2023/04/11 09:19:42;;;;;;;5.13;1.03;;;13.70;12.00;;;;;;5125807;27;20479;-66
2023/04/11 09:22:09;;;;;;;6.93;2.07;;;13.50;12.00;;;;;;5120918;27;20837;-65
2023/04/11 09:24:37;;;;;;;9.23;1.67;;;13.30;11.70;;;;;;5112551;27;20580;-66
2023/04/11 09:27:11;;;;;;;4.67;0.90;;;13.20;12.30;;;;;;5119311;27;23019;-64
2023/04/11 09:29:41;;;;;;;6.43;1.57;;;13.00;12.50;;;;;;5128833;27;20489;-66
2023/04/11 09:32:25;;;;;;;7.60;1.27;;;13.00;12.80;;;;;;5121264;27;20470;-66
2023/04/11 09:34:51;;;;;;;5.20;1.10;;;13.00;13.70;;;;;;5132363;27;20485;-64
2023/04/11 09:37:18;;;;;;;5.70;1.27;;;13.00;13.50;;;;;;5121618;27;20852;-65
2023/04/11 09:39:48;;;;;;;4.73;1.03;;;13.10;13.70;;;;;;5124989;27;20854;-67
2023/04/11 09:42:24;;;;;;;7.00;1.47;;;13.10;13.20;;;;;;5114129;27;20473;-66
2023/04/11 09:44:53;;;;;;;6.70;1.57;;;13.00;13.20;;;;;;5118665;27;20841;-66
2023/04/11 09:47:20;;;;;;;6.27;1.10;;;13.00;12.40;;;;;;5118461;27;20462;-66
2023/04/11 09:49:47;;;;;;;13.30;1.53;;;12.80;12.90;;;;;;5133728;27;20474;-66
2023/04/11 09:52:14;;;;;;;5.07;1.00;;;12.80;13.20;;;;;;5117438;27;20478;-66
2023/04/11 09:54:42;;;;;;;8.87;1.53;;;12.70;13.50;;;;;;5121188;27;20461;-64
2023/04/11 09:57:10;;;;;;;7.33;1.20;;;12.70;13.60;;;;;;5126641;27;20454;-65
2023/04/11 09:59:40;;;;;;;5.33;1.20;;;12.80;13.50;;;;;;5123639;27;20474;-65
2023/04/11 10:02:08;;;;;;;4.70;1.20;;;13.10;14.10;;;;;;5100840;28;20468;-65
2023/04/11 10:04:35;;;;;;;5.07;1.30;;;14.00;12.70;;;;;;5116915;27;20451;-66
2023/04/11 10:07:08;;;;;;;5.80;1.60;;;14.70;11.20;;;;;;5122714;27;20490;-66
2023/04/11 10:09:39;;;;;;;5.40;1.50;;;15.20;10.20;;;;;;5115715;27;20478;-66
2023/04/11 10:12:06;;;;;;;6.77;1.63;;;15.40;10.50;;;;;;5112685;27;20493;-66
2023/04/11 10:14:44;;;;;;;10.97;1.53;;;15.50;9.30;;;;;;5121214;27;20909;-64
2023/04/11 10:17:14;;;;;;;6.87;1.40;;;15.60;8.00;;;;;;5108760;27;20455;-64
2023/04/11 10:19:41;;;;;;;6.10;1.20;;;15.60;8.00;;;;;;5114889;27;21070;-64
2023/04/11 10:22:08;;;;;;;4.83;0.90;;;15.70;7.70;;;;;;5116748;27;20456;-64
2023/04/11 10:24:35;;;;;;;5.70;1.40;;;15.60;6.60;;;;;;5111439;27;20461;-63
2023/04/11 10:27:03;;;;;;;5.47;1.53;;;15.80;6.80;;;;;;5117778;27;20474;-63
2023/04/11 10:29:49;;;;;;;7.30;1.40;;;16.10;6.80;;;;;;5121976;27;20490;-63
2023/04/11 10:32:26;;;;;;;4.80;1.17;;;16.30;6.60;;;;;;5119622;27;20880;-63
2023/04/11 10:35:24;;;;;;;6.30;1.33;;;16.40;5.00;;;;;;5122618;27;20477;-63
2023/04/11 10:37:51;;;;;;;7.37;1.37;;;16.40;4.30;;;;;;5091840;27;20469;-63
2023/04/11 10:40:19;;;;;;;7.10;1.40;;;16.20;4.60;;;;;;5118558;27;20490;-65
2023/04/11 10:42:47;;;;;;;5.67;1.37;;;16.00;5.50;;;;;;5113118;27;20462;-65
2023/04/11 10:45:23;;;;;;;6.40;1.37;;;16.00;5.70;;;;;;5118036;27;20491;-66
2023/04/11 10:48:10;;;;;;;6.80;1.70;;;16.10;5.80;;;;;;5121599;27;20535;-64
2023/04/11 10:50:42;;;;;;;8.63;1.43;;;16.50;6.30;;;;;;5118558;27;20986;-66
2023/04/11 10:53:32;;;;;;;5.43;1.37;;;16.80;4.60;;;;;;5119905;27;20466;-67
2023/04/11 10:56:00;;;;;;;7.53;2.67;;;16.70;3.80;;;;;;5113222;27;20478;-68
2023/04/11 10:58:35;;;;;;;6.67;1.40;;;16.60;5.00;;;;;;5122258;27;20491;-67
2023/04/11 11:01:15;;;;;;;5.10;1.27;;;16.50;4.40;;;;;;5119603;27;20488;-68
2023/04/11 11:03:53;;;;;;;6.70;1.00;;;16.50;5.30;;;;;;5119749;27;20510;-67
2023/04/11 11:06:21;;;;;;;6.00;1.43;;;16.40;4.50;;;;;;5112530;27;20580;-65
2023/04/11 11:08:47;;;;;;;6.87;1.80;;;16.30;4.40;;;;;;5118560;27;21041;-67
2023/04/11 11:11:16;;;;;;;6.93;1.20;;;16.10;4.50;;;;;;5119645;27;20480;-65
2023/04/11 11:13:44;;;;;;;4.10;0.90;;;16.00;4.70;;;;;;5106931;27;20463;-65
2023/04/11 11:16:14;;;;;;;4.87;1.20;;;15.90;4.60;;;;;;5116575;27;20529;-65
2023/04/11 11:18:45;;;;;;;4.60;1.40;;;15.80;6.00;;;;;;5112316;27;20875;-63
2023/04/11 11:21:15;;;;;;;5.30;1.10;;;15.80;6.40;;;;;;5113812;27;21295;-65
2023/04/11 11:23:53;;;;;;;4.73;1.17;;;16.00;6.40;;;;;;5112200;27;20875;-63
2023/04/11 11:26:20;;;;;;;4.17;1.10;;;16.20;7.10;;;;;;5124564;27;20458;-66
2023/04/11 11:28:47;;;;;;;5.87;1.03;;;16.30;7.30;;;;;;5121355;27;20462;-66
2023/04/11 11:31:14;;;;;;;5.60;1.10;;;16.40;5.40;;;;;;5125405;27;22511;-67
2023/04/11 11:33:42;;;;;;;4.40;1.00;;;16.40;5.30;;;;;;5126648;27;20494;-66
2023/04/11 11:36:10;;;;;;;5.43;0.93;;;16.20;4.70;;;;;;5106117;27;20466;-66
2023/04/11 11:38:38;;;;;;;6.10;1.47;;;16.10;5.00;;;;;;5104319;27;20546;-66
2023/04/11 11:41:05;;;;;;;5.40;1.20;;;15.90;4.50;;;;;;5121566;27;20997;-68
2023/04/11 11:43:36;;;;;;;5.33;1.30;;;15.80;4.80;;;;;;5120106;27;20573;-66
2023/04/11 11:46:12;;;;;;;4.57;0.90;;;15.70;5.70;;;;;;5113989;27;20490;-66
2023/04/11 11:48:40;;;;;;;5.83;1.17;;;15.70;6.00;;;;;;5124812;27;20549;-66
2023/04/11 11:51:07;;;;;;;4.07;1.10;;;15.70;6.00;;;;;;5124076;27;20973;-66
2023/04/11 11:53:34;;;;;;;4.50;1.07;;;15.70;6.80;;;;;;5127581;27;20458;-66
2023/04/11 11:56:12;;;;;;;5.33;0.93;;;15.90;6.90;;;;;;5120168;27;20493;-66
2023/04/11 11:58:43;;;;;;;6.60;0.93;;;16.00;6.80;;;;;;5119838;27;20462;-66
2023/04/11 12:01:13;;;;;;;4.83;1.10;;;16.00;6.60;;;;;;5124818;27;20505;-66
2023/04/11 12:03:40;;;;;;;4.10;1.10;;;16.10;6.30;;;;;;5129253;27;20458;-66
2023/04/11 12:06:08;;;;;;;5.43;1.47;;;16.10;6.00;;;;;;5116044;27;20460;-66
2023/04/11 12:08:42;;;;;;;7.07;1.77;;;16.10;6.50;;;;;;5118255;27;20462;-66
2023/04/11 12:11:13;;;;;;;6.13;1.20;;;16.20;6.60;;;;;;5128045;27;20482;-67
2023/04/11 12:13:40;;;;;;;5.47;1.13;;;16.30;6.60;;;;;;5124427;27;21017;-69
2023/04/11 12:16:07;;;;;;;4.63;1.10;;;16.40;6.40;;;;;;5128314;27;20458;-67
2023/04/11 12:18:34;;;;;;;6.67;1.20;;;16.50;5.80;;;;;;5126841;27;20463;-66
2023/04/11 12:21:02;;;;;;;4.60;1.00;;;16.60;6.40;;;;;;5120148;27;20500;-66
2023/04/11 12:23:29;;;;;;;6.20;1.33;;;16.70;5.20;;;;;;5123031;27;20464;-68
2023/04/11 12:25:55;;;;;;;5.57;1.10;;;16.80;4.70;;;;;;5119621;27;20463;-68
2023/04/11 12:28:23;;;;;;;9.70;1.20;;;16.70;4.00;;;;;;5123293;27;23444;-66
2023/04/11 12:30:50;;;;;;;4.80;1.20;;;16.50;3.40;;;;;;5115199;27;20525;-66
2023/04/11 12:33:17;;;;;;;6.63;1.60;;;16.50;4.00;;;;;;5127033;27;20931;-66
2023/04/11 12:35:44;;;;;;;4.17;1.00;;;16.40;4.00;;;;;;5126911;27;20459;-66
2023/04/11 12:38:10;;;;;;;4.80;1.00;;;16.40;4.20;;;;;;5123339;27;20461;-66
2023/04/11 12:40:37;;;;;;;5.37;1.20;;;16.40;4.50;;;;;;5123813;27;21003;-65
2023/04/11 12:43:04;;;;;;;5.50;0.80;;;16.50;5.10;;;;;;5129519;27;20453;-66
2023/04/11 12:45:32;;;;;;;3.90;0.70;;;16.50;3.40;;;;;;5127141;27;20454;-67
2023/04/11 12:47:59;;;;;;;4.50;1.10;;;16.50;2.60;;;;;;5119701;27;20485;-65
2023/04/11 12:50:26;;;;;;;3.73;0.83;;;16.60;2.30;;;;;;5119595;27;21068;-67
2023/04/11 12:52:52;;;;;;;9.53;1.43;;;16.50;2.40;;;;;;5119788;27;20477;-67
2023/04/11 12:55:20;;;;;;;3.93;1.30;;;16.40;1.70;;;;;;5117991;27;20454;-66